sensor_id;sensor_type;location;lat;lon;timestamp;pressure;altitude;pressure_sealevel;temperature;humidity
34696;BME280;20918;51.138;17.370;2023-03-22T00:02:07;100016.55;;;7.60;86.85
34696;BME280;20918;51.138;17.370;2023-03-22T00:05:07;100012.49;;;7.62;86.91
34696;BME280;20918;51.138;17.370;2023-03-22T00:08:11;100011.89;;;7.64;86.73
34696;BME280;20918;51.138;17.370;2023-03-22T00:11:16;100010.80;;;7.67;87.00
34696;BME280;20918;51.138;17.370;2023-03-22T00:14:17;100007.07;;;7.69;87.08
34696;BME280;20918;51.138;17.370;2023-03-22T00:17:18;100006.17;;;7.71;86.96
34696;BME280;20918;51.138;17.370;2023-03-22T00:20:19;100005.99;;;7.73;86.88
34696;BME280;20918;51.138;17.370;2023-03-22T00:23:20;100004.48;;;7.74;86.97
34696;BME280;20918;51.138;17.370;2023-03-22T00:26:24;100001.92;;;7.75;86.92
34696;BME280;20918;51.138;17.370;2023-03-22T00:29:24;99998.36;;;7.75;87.18
34696;BME280;20918;51.138;17.370;2023-03-22T00:32:34;99993.64;;;7.75;87.13
34696;BME280;20918;51.138;17.370;2023-03-22T00:35:35;99987.33;;;7.74;87.24
34696;BME280;20918;51.138;17.370;2023-03-22T00:38:39;99986.45;;;7.75;87.29
34696;BME280;20918;51.138;17.370;2023-03-22T00:41:42;99978.98;;;7.73;87.39
34696;BME280;20918;51.138;17.370;2023-03-22T00:44:43;99978.00;;;7.73;87.33
34696;BME280;20918;51.138;17.370;2023-03-22T00:47:46;99973.54;;;7.72;87.58
34696;BME280;20918;51.138;17.370;2023-03-22T00:50:49;99972.23;;;7.71;87.45
34696;BME280;20918;51.138;17.370;2023-03-22T00:54:00;99968.83;;;7.69;87.86
34696;BME280;20918;51.138;17.370;2023-03-22T01:00:37;99958.03;;;7.66;88.07
34696;BME280;20918;51.138;17.370;2023-03-22T01:03:58;99954.30;;;7.65;88.35
34696;BME280;20918;51.138;17.370;2023-03-22T01:07:12;99948.98;;;7.63;88.26
34696;BME280;20918;51.138;17.370;2023-03-22T01:10:19;99944.20;;;7.62;88.44
34696;BME280;20918;51.138;17.370;2023-03-22T01:13:24;99946.34;;;7.61;88.61
34696;BME280;20918;51.138;17.370;2023-03-22T01:16:29;99944.49;;;7.61;88.67
34696;BME280;20918;51.138;17.370;2023-03-22T01:19:32;99945.79;;;7.60;88.60
34696;BME280;20918;51.138;17.370;2023-03-22T01:22:54;99940.97;;;7.59;88.92
34696;BME280;20918;51.138;17.370;2023-03-22T01:25:58;99936.32;;;7.58;89.01
34696;BME280;20918;51.138;17.370;2023-03-22T01:29:01;99931.23;;;7.58;89.05
34696;BME280;20918;51.138;17.370;2023-03-22T01:32:04;99929.38;;;7.57;89.02
34696;BME280;20918;51.138;17.370;2023-03-22T01:35:05;99924.59;;;7.57;88.81
34696;BME280;20918;51.138;17.370;2023-03-22T01:38:09;99922.27;;;7.58;88.95
34696;BME280;20918;51.138;17.370;2023-03-22T01:41:15;99916.67;;;7.57;89.17
34696;BME280;20918;51.138;17.370;2023-03-22T01:44:20;99911.75;;;7.57;89.11
34696;BME280;20918;51.138;17.370;2023-03-22T01:47:21;99908.44;;;7.57;89.06
34696;BME280;20918;51.138;17.370;2023-03-22T01:51:04;99907.14;;;7.57;88.81
34696;BME280;20918;51.138;17.370;2023-03-22T01:54:07;99904.66;;;7.59;89.04
34696;BME280;20918;51.138;17.370;2023-03-22T01:57:09;99904.36;;;7.61;88.84
34696;BME280;20918;51.138;17.370;2023-03-22T02:00:13;99901.79;;;7.62;88.73
34696;BME280;20918;51.138;17.370;2023-03-22T02:03:41;99902.75;;;7.62;88.71
34696;BME280;20918;51.138;17.370;2023-03-22T02:06:55;99898.21;;;7.64;88.67
34696;BME280;20918;51.138;17.370;2023-03-22T02:10:01;99888.34;;;7.64;88.67
34696;BME280;20918;51.138;17.370;2023-03-22T02:23:18;99898.02;;;7.68;88.33
34696;BME280;20918;51.138;17.370;2023-03-22T02:29:45;99901.61;;;7.73;88.23
34696;BME280;20918;51.138;17.370;2023-03-22T02:33:00;99899.19;;;7.76;88.20
34696;BME280;20918;51.138;17.370;2023-03-22T02:39:12;99899.65;;;7.80;88.10
34696;BME280;20918;51.138;17.370;2023-03-22T02:45:32;99892.94;;;7.78;88.07
34696;BME280;20918;51.138;17.370;2023-03-22T02:49:05;99889.63;;;7.74;88.14
34696;BME280;20918;51.138;17.370;2023-03-22T02:52:47;99887.19;;;7.72;88.06
34696;BME280;20918;51.138;17.370;2023-03-22T02:55:54;99884.27;;;7.73;88.20
34696;BME280;20918;51.138;17.370;2023-03-22T02:58:58;99884.52;;;7.74;88.11
34696;BME280;20918;51.138;17.370;2023-03-22T03:02:01;99883.98;;;7.73;88.14
34696;BME280;20918;51.138;17.370;2023-03-22T03:05:05;99886.29;;;7.73;88.08
34696;BME280;20918;51.138;17.370;2023-03-22T03:08:09;99886.48;;;7.72;88.07
34696;BME280;20918;51.138;17.370;2023-03-22T03:11:11;99885.20;;;7.73;88.17
34696;BME280;20918;51.138;17.370;2023-03-22T03:14:46;99889.60;;;7.74;88.18
34696;BME280;20918;51.138;17.370;2023-03-22T03:20:43;99892.02;;;7.78;88.12
34696;BME280;20918;51.138;17.370;2023-03-22T03:27:26;99888.52;;;7.70;88.11
34696;BME280;20918;51.138;17.370;2023-03-22T03:30:42;99887.05;;;7.70;88.23
34696;BME280;20918;51.138;17.370;2023-03-22T03:33:53;99889.09;;;7.73;88.23
34696;BME280;20918;51.138;17.370;2023-03-22T03:36:59;99890.05;;;7.74;88.22
34696;BME280;20918;51.138;17.370;2023-03-22T03:43:20;99889.05;;;7.71;88.22
34696;BME280;20918;51.138;17.370;2023-03-22T03:46:24;99889.27;;;7.69;88.33
34696;BME280;20918;51.138;17.370;2023-03-22T03:49:45;99900.42;;;7.69;88.38
34696;BME280;20918;51.138;17.370;2023-03-22T03:52:50;99904.98;;;7.69;88.26
34696;BME280;20918;51.138;17.370;2023-03-22T03:55:53;99916.83;;;7.68;88.42
34696;BME280;20918;51.138;17.370;2023-03-22T03:58:57;99923.23;;;7.66;88.46
34696;BME280;20918;51.138;17.370;2023-03-22T04:02:22;99927.71;;;7.63;88.61
34696;BME280;20918;51.138;17.370;2023-03-22T04:05:24;99928.19;;;7.62;88.62
34696;BME280;20918;51.138;17.370;2023-03-22T04:08:25;99927.80;;;7.60;88.63
34696;BME280;20918;51.138;17.370;2023-03-22T04:11:26;99929.48;;;7.61;88.75
34696;BME280;20918;51.138;17.370;2023-03-22T04:14:32;99924.49;;;7.61;88.67
34696;BME280;20918;51.138;17.370;2023-03-22T04:17:40;99920.94;;;7.62;88.79
34696;BME280;20918;51.138;17.370;2023-03-22T04:20:44;99921.66;;;7.62;88.71
34696;BME280;20918;51.138;17.370;2023-03-22T04:23:45;99922.55;;;7.58;88.64
34696;BME280;20918;51.138;17.370;2023-03-22T04:26:56;99927.38;;;7.58;88.78
34696;BME280;20918;51.138;17.370;2023-03-22T04:30:12;99926.26;;;7.58;88.94
34696;BME280;20918;51.138;17.370;2023-03-22T04:33:40;99929.67;;;7.59;88.89
34696;BME280;20918;51.138;17.370;2023-03-22T04:36:56;99928.34;;;7.60;88.83
34696;BME280;20918;51.138;17.370;2023-03-22T04:40:01;99924.98;;;7.60;88.87
34696;BME280;20918;51.138;17.370;2023-03-22T04:43:24;99918.05;;;7.57;88.88
34696;BME280;20918;51.138;17.370;2023-03-22T04:46:30;99914.52;;;7.57;89.03
34696;BME280;20918;51.138;17.370;2023-03-22T04:49:36;99910.64;;;7.54;88.94
34696;BME280;20918;51.138;17.370;2023-03-22T04:52:39;99906.03;;;7.49;88.95
34696;BME280;20918;51.138;17.370;2023-03-22T04:55:41;99907.00;;;7.43;89.11
34696;BME280;20918;51.138;17.370;2023-03-22T04:58:53;99909.55;;;7.37;89.20
34696;BME280;20918;51.138;17.370;2023-03-22T05:01:55;99903.69;;;7.34;89.37
34696;BME280;20918;51.138;17.370;2023-03-22T05:05:01;99900.55;;;7.33;89.44
34696;BME280;20918;51.138;17.370;2023-03-22T05:08:11;99897.58;;;7.31;89.51
34696;BME280;20918;51.138;17.370;2023-03-22T05:11:15;99894.73;;;7.28;89.55
34696;BME280;20918;51.138;17.370;2023-03-22T05:14:32;99894.17;;;7.29;89.89
34696;BME280;20918;51.138;17.370;2023-03-22T05:17:36;99889.60;;;7.30;89.74
34696;BME280;20918;51.138;17.370;2023-03-22T05:21:11;99886.83;;;7.31;89.81
34696;BME280;20918;51.138;17.370;2023-03-22T05:24:18;99886.02;;;7.31;89.86
34696;BME280;20918;51.138;17.370;2023-03-22T05:27:20;99884.83;;;7.32;90.05
34696;BME280;20918;51.138;17.370;2023-03-22T05:30:31;99882.96;;;7.33;90.22
34696;BME280;20918;51.138;17.370;2023-03-22T05:36:53;99877.88;;;7.35;90.11
34696;BME280;20918;51.138;17.370;2023-03-22T05:40:10;99882.79;;;7.35;90.41
34696;BME280;20918;51.138;17.370;2023-03-22T05:43:15;99894.10;;;7.35;90.37
34696;BME280;20918;51.138;17.370;2023-03-22T05:46:21;99895.33;;;7.36;90.51
34696;BME280;20918;51.138;17.370;2023-03-22T05:49:47;99891.13;;;7.39;90.55
34696;BME280;20918;51.138;17.370;2023-03-22T05:52:48;99902.27;;;7.45;90.48
34696;BME280;20918;51.138;17.370;2023-03-22T05:55:55;99905.02;;;7.49;90.61
34696;BME280;20918;51.138;17.370;2023-03-22T05:59:02;99906.27;;;7.52;90.63
34696;BME280;20918;51.138;17.370;2023-03-22T06:02:05;99907.23;;;7.56;90.65
34696;BME280;20918;51.138;17.370;2023-03-22T06:05:06;99908.42;;;7.58;90.81
34696;BME280;20918;51.138;17.370;2023-03-22T06:08:06;99906.86;;;7.60;91.03
34696;BME280;20918;51.138;17.370;2023-03-22T06:11:07;99907.11;;;7.63;90.93
34696;BME280;20918;51.138;17.370;2023-03-22T06:14:09;99908.52;;;7.65;91.09
34696;BME280;20918;51.138;17.370;2023-03-22T06:17:24;99908.58;;;7.68;91.11
34696;BME280;20918;51.138;17.370;2023-03-22T06:20:24;99910.54;;;7.71;91.19
34696;BME280;20918;51.138;17.370;2023-03-22T06:23:39;99910.77;;;7.76;91.34
34696;BME280;20918;51.138;17.370;2023-03-22T06:26:46;99911.36;;;7.80;91.38
34696;BME280;20918;51.138;17.370;2023-03-22T06:29:47;99903.77;;;7.86;91.41
34696;BME280;20918;51.138;17.370;2023-03-22T06:32:51;99903.48;;;7.92;91.58
34696;BME280;20918;51.138;17.370;2023-03-22T06:36:14;99900.80;;;7.99;91.64
34696;BME280;20918;51.138;17.370;2023-03-22T06:39:35;99902.53;;;8.07;91.78
34696;BME280;20918;51.138;17.370;2023-03-22T06:42:42;99900.59;;;8.12;91.89
34696;BME280;20918;51.138;17.370;2023-03-22T06:46:16;99901.83;;;8.19;91.95
34696;BME280;20918;51.138;17.370;2023-03-22T06:49:24;99901.38;;;8.29;91.82
34696;BME280;20918;51.138;17.370;2023-03-22T06:52:29;99901.20;;;8.41;91.82
34696;BME280;20918;51.138;17.370;2023-03-22T06:55:30;99900.29;;;8.53;91.78
34696;BME280;20918;51.138;17.370;2023-03-22T06:58:45;99900.27;;;8.69;91.75
34696;BME280;20918;51.138;17.370;2023-03-22T07:01:48;99900.98;;;8.87;91.52
34696;BME280;20918;51.138;17.370;2023-03-22T07:04:50;99903.78;;;9.08;91.37
34696;BME280;20918;51.138;17.370;2023-03-22T07:07:52;99902.70;;;9.34;91.16
34696;BME280;20918;51.138;17.370;2023-03-22T07:11:05;99908.27;;;9.60;91.00
34696;BME280;20918;51.138;17.370;2023-03-22T07:14:25;99907.54;;;10.00;90.70
34696;BME280;20918;51.138;17.370;2023-03-22T07:17:44;99907.50;;;10.40;89.88
34696;BME280;20918;51.138;17.370;2023-03-22T07:20:51;99906.83;;;10.61;89.29
34696;BME280;20918;51.138;17.370;2023-03-22T07:23:54;99901.48;;;10.70;88.31
34696;BME280;20918;51.138;17.370;2023-03-22T07:27:07;99898.86;;;10.84;88.18
34696;BME280;20918;51.138;17.370;2023-03-22T07:30:08;99899.77;;;11.05;87.48
34696;BME280;20918;51.138;17.370;2023-03-22T07:33:12;99896.88;;;11.30;87.32
34696;BME280;20918;51.138;17.370;2023-03-22T07:36:17;99889.28;;;11.56;87.24
34696;BME280;20918;51.138;17.370;2023-03-22T07:39:23;99889.84;;;11.92;86.86
34696;BME280;20918;51.138;17.370;2023-03-22T07:42:28;99888.16;;;12.27;86.56
34696;BME280;20918;51.138;17.370;2023-03-22T07:45:49;99889.65;;;12.46;84.49
34696;BME280;20918;51.138;17.370;2023-03-22T07:49:15;99888.99;;;12.43;83.71
34696;BME280;20918;51.138;17.370;2023-03-22T07:52:38;99887.37;;;12.51;83.54
34696;BME280;20918;51.138;17.370;2023-03-22T07:55:41;99885.78;;;12.50;83.25
34696;BME280;20918;51.138;17.370;2023-03-22T07:58:45;99884.52;;;12.55;82.78
34696;BME280;20918;51.138;17.370;2023-03-22T08:01:49;99883.64;;;12.84;82.81
34696;BME280;20918;51.138;17.370;2023-03-22T08:05:08;99878.86;;;13.22;80.95
34696;BME280;20918;51.138;17.370;2023-03-22T08:08:12;99875.63;;;13.28;80.04
34696;BME280;20918;51.138;17.370;2023-03-22T08:11:15;99871.63;;;13.47;80.80
34696;BME280;20918;51.138;17.370;2023-03-22T08:14:16;99873.58;;;13.77;80.40
34696;BME280;20918;51.138;17.370;2023-03-22T08:20:37;99872.33;;;14.47;76.63
34696;BME280;20918;51.138;17.370;2023-03-22T08:23:42;99866.41;;;14.64;76.37
34696;BME280;20918;51.138;17.370;2023-03-22T08:27:01;99863.64;;;14.81;76.35
34696;BME280;20918;51.138;17.370;2023-03-22T08:30:07;99859.80;;;14.98;76.29
34696;BME280;20918;51.138;17.370;2023-03-22T08:33:08;99858.02;;;14.96;75.40
34696;BME280;20918;51.138;17.370;2023-03-22T08:36:10;99861.43;;;14.97;74.72
34696;BME280;20918;51.138;17.370;2023-03-22T08:39:17;99855.77;;;15.19;75.26
34696;BME280;20918;51.138;17.370;2023-03-22T08:42:37;99856.55;;;15.63;73.57
34696;BME280;20918;51.138;17.370;2023-03-22T08:45:38;99857.09;;;15.83;72.53
34696;BME280;20918;51.138;17.370;2023-03-22T08:48:43;99856.59;;;15.89;72.77
34696;BME280;20918;51.138;17.370;2023-03-22T08:51:53;99857.05;;;16.08;72.61
34696;BME280;20918;51.138;17.370;2023-03-22T08:55:09;99855.69;;;16.16;70.95
34696;BME280;20918;51.138;17.370;2023-03-22T08:58:31;99857.50;;;16.13;70.67
34696;BME280;20918;51.138;17.370;2023-03-22T09:01:55;99857.74;;;16.29;70.57
34696;BME280;20918;51.138;17.370;2023-03-22T09:05:08;99848.63;;;16.45;70.09
34696;BME280;20918;51.138;17.370;2023-03-22T09:08:32;99841.67;;;16.45;69.02
34696;BME280;20918;51.138;17.370;2023-03-22T09:11:49;99841.02;;;16.43;69.03
34696;BME280;20918;51.138;17.370;2023-03-22T09:14:55;99840.66;;;16.51;68.70
34696;BME280;20918;51.138;17.370;2023-03-22T09:18:05;99838.10;;;16.63;68.73
34696;BME280;20918;51.138;17.370;2023-03-22T09:21:30;99833.36;;;16.85;68.56
34696;BME280;20918;51.138;17.370;2023-03-22T09:25:02;99828.51;;;17.10;68.08
34696;BME280;20918;51.138;17.370;2023-03-22T09:28:15;99826.77;;;17.40;67.74
34696;BME280;20918;51.138;17.370;2023-03-22T09:31:21;99822.29;;;17.73;67.62
34696;BME280;20918;51.138;17.370;2023-03-22T09:34:28;99821.17;;;18.04;67.40
34696;BME280;20918;51.138;17.370;2023-03-22T09:37:30;99818.06;;;18.28;66.25
34696;BME280;20918;51.138;17.370;2023-03-22T09:44:27;99808.70;;;18.27;64.54
34696;BME280;20918;51.138;17.370;2023-03-22T09:47:53;99808.12;;;18.27;64.07
34696;BME280;20918;51.138;17.370;2023-03-22T09:51:03;99809.52;;;18.31;63.69
34696;BME280;20918;51.138;17.370;2023-03-22T09:57:37;99806.52;;;18.63;62.55
34696;BME280;20918;51.138;17.370;2023-03-22T10:04:20;99810.27;;;18.70;61.80
34696;BME280;20918;51.138;17.370;2023-03-22T10:10:56;99806.80;;;19.07;61.75
34696;BME280;20918;51.138;17.370;2023-03-22T10:17:24;99800.10;;;19.36;59.83
34696;BME280;20918;51.138;17.370;2023-03-22T10:24:15;99793.25;;;18.95;59.48
34696;BME280;20918;51.138;17.370;2023-03-22T10:27:22;99793.52;;;18.80;59.81
34696;BME280;20918;51.138;17.370;2023-03-22T10:30:27;99794.36;;;18.81;59.75
34696;BME280;20918;51.138;17.370;2023-03-22T10:36:35;99786.48;;;18.88;59.56
34696;BME280;20918;51.138;17.370;2023-03-22T10:39:41;99783.46;;;19.07;59.59
34696;BME280;20918;51.138;17.370;2023-03-22T10:42:55;99780.48;;;19.30;59.21
34696;BME280;20918;51.138;17.370;2023-03-22T10:46:00;99779.91;;;19.36;57.50
34696;BME280;20918;51.138;17.370;2023-03-22T10:49:02;99783.11;;;19.17;57.47
34696;BME280;20918;51.138;17.370;2023-03-22T10:55:39;99787.33;;;18.90;57.62
34696;BME280;20918;51.138;17.370;2023-03-22T10:58:44;99788.55;;;18.79;57.34
34696;BME280;20918;51.138;17.370;2023-03-22T11:01:48;99782.94;;;18.78;57.35
34696;BME280;20918;51.138;17.370;2023-03-22T11:04:55;99784.84;;;18.75;57.30
34696;BME280;20918;51.138;17.370;2023-03-22T11:08:04;99780.16;;;18.68;56.69
34696;BME280;20918;51.138;17.370;2023-03-22T11:11:06;99776.50;;;18.51;56.02
34696;BME280;20918;51.138;17.370;2023-03-22T11:14:18;99779.23;;;18.34;56.28
34696;BME280;20918;51.138;17.370;2023-03-22T11:17:21;99775.05;;;18.14;56.61
34696;BME280;20918;51.138;17.370;2023-03-22T11:20:24;99767.48;;;18.09;56.92
34696;BME280;20918;51.138;17.370;2023-03-22T11:23:28;99758.39;;;18.11;57.08
34696;BME280;20918;51.138;17.370;2023-03-22T11:26:42;99757.64;;;18.07;56.21
34696;BME280;20918;51.138;17.370;2023-03-22T11:33:21;99754.48;;;18.04;56.46
34696;BME280;20918;51.138;17.370;2023-03-22T11:36:25;99748.16;;;18.08;56.73
34696;BME280;20918;51.138;17.370;2023-03-22T11:39:27;99743.84;;;18.24;56.60
34696;BME280;20918;51.138;17.370;2023-03-22T11:42:27;99738.61;;;18.31;56.62
34696;BME280;20918;51.138;17.370;2023-03-22T11:45:59;99732.09;;;18.30;56.03
34696;BME280;20918;51.138;17.370;2023-03-22T11:49:21;99725.27;;;18.21;56.40
34696;BME280;20918;51.138;17.370;2023-03-22T11:52:50;99722.33;;;18.16;56.08
34696;BME280;20918;51.138;17.370;2023-03-22T11:56:06;99720.05;;;18.09;56.26
34696;BME280;20918;51.138;17.370;2023-03-22T11:59:12;99720.16;;;18.07;56.15
34696;BME280;20918;51.138;17.370;2023-03-22T12:02:17;99715.05;;;18.01;55.31
34696;BME280;20918;51.138;17.370;2023-03-22T12:06:03;99706.63;;;17.97;55.82
34696;BME280;20918;51.138;17.370;2023-03-22T12:09:20;99700.85;;;18.00;55.26
34696;BME280;20918;51.138;17.370;2023-03-22T12:12:27;99700.28;;;17.99;55.60
34696;BME280;20918;51.138;17.370;2023-03-22T12:15:35;99692.33;;;17.98;56.00
34696;BME280;20918;51.138;17.370;2023-03-22T12:18:44;99688.59;;;17.99;55.86
34696;BME280;20918;51.138;17.370;2023-03-22T12:21:53;99685.19;;;17.97;55.66
34696;BME280;20918;51.138;17.370;2023-03-22T12:25:09;99685.77;;;18.04;55.61
34696;BME280;20918;51.138;17.370;2023-03-22T12:28:13;99684.71;;;18.09;55.00
34696;BME280;20918;51.138;17.370;2023-03-22T12:31:17;99686.84;;;18.10;54.49
34696;BME280;20918;51.138;17.370;2023-03-22T12:34:31;99687.57;;;18.05;54.21
34696;BME280;20918;51.138;17.370;2023-03-22T12:37:37;99679.07;;;17.98;54.57
34696;BME280;20918;51.138;17.370;2023-03-22T12:40:48;99678.02;;;18.05;54.81
34696;BME280;20918;51.138;17.370;2023-03-22T12:43:58;99669.43;;;18.11;53.60
34696;BME280;20918;51.138;17.370;2023-03-22T12:47:17;99666.55;;;18.08;53.54
34696;BME280;20918;51.138;17.370;2023-03-22T12:50:20;99668.20;;;18.14;53.52
34696;BME280;20918;51.138;17.370;2023-03-22T12:53:25;99669.86;;;18.19;52.57
34696;BME280;20918;51.138;17.370;2023-03-22T12:56:35;99666.96;;;18.29;52.59
34696;BME280;20918;51.138;17.370;2023-03-22T12:59:40;99667.64;;;18.37;52.31
34696;BME280;20918;51.138;17.370;2023-03-22T13:02:48;99667.30;;;18.43;51.66
34696;BME280;20918;51.138;17.370;2023-03-22T13:06:01;99661.71;;;18.38;52.00
34696;BME280;20918;51.138;17.370;2023-03-22T13:15:28;99647.03;;;18.19;52.17
34696;BME280;20918;51.138;17.370;2023-03-22T13:25:56;99634.86;;;18.32;51.33
34696;BME280;20918;51.138;17.370;2023-03-22T13:28:58;99633.53;;;18.32;51.39
34696;BME280;20918;51.138;17.370;2023-03-22T13:32:45;99630.44;;;18.33;50.76
34696;BME280;20918;51.138;17.370;2023-03-22T13:35:48;99626.16;;;18.20;50.38
34696;BME280;20918;51.138;17.370;2023-03-22T13:38:57;99627.92;;;18.05;49.89
34696;BME280;20918;51.138;17.370;2023-03-22T13:45:29;99628.95;;;18.00;50.26
34696;BME280;20918;51.138;17.370;2023-03-22T13:48:50;99626.86;;;17.89;49.87
34696;BME280;20918;51.138;17.370;2023-03-22T13:51:51;99628.67;;;17.75;49.95
34696;BME280;20918;51.138;17.370;2023-03-22T13:55:13;99625.41;;;17.64;50.20
34696;BME280;20918;51.138;17.370;2023-03-22T14:01:28;99622.77;;;17.53;50.47
34696;BME280;20918;51.138;17.370;2023-03-22T14:04:37;99620.53;;;17.51;50.79
34696;BME280;20918;51.138;17.370;2023-03-22T14:10:42;99623.02;;;17.61;50.33
34696;BME280;20918;51.138;17.370;2023-03-22T14:13:50;99618.52;;;17.57;50.12
34696;BME280;20918;51.138;17.370;2023-03-22T14:17:02;99607.23;;;17.55;49.27
34696;BME280;20918;51.138;17.370;2023-03-22T14:20:18;99609.61;;;17.49;49.84
34696;BME280;20918;51.138;17.370;2023-03-22T14:23:21;99606.11;;;17.53;49.52
34696;BME280;20918;51.138;17.370;2023-03-22T14:26:24;99603.02;;;17.56;49.09
34696;BME280;20918;51.138;17.370;2023-03-22T14:29:26;99597.21;;;17.55;49.18
34696;BME280;20918;51.138;17.370;2023-03-22T14:32:41;99595.77;;;17.55;49.40
34696;BME280;20918;51.138;17.370;2023-03-22T14:35:53;99593.66;;;17.55;49.23
34696;BME280;20918;51.138;17.370;2023-03-22T14:38:56;99591.63;;;17.45;47.95
34696;BME280;20918;51.138;17.370;2023-03-22T14:45:06;99584.73;;;17.19;48.62
34696;BME280;20918;51.138;17.370;2023-03-22T14:48:24;99585.52;;;17.11;48.73
34696;BME280;20918;51.138;17.370;2023-03-22T14:51:36;99583.97;;;17.02;49.01
34696;BME280;20918;51.138;17.370;2023-03-22T14:54:40;99588.00;;;16.86;49.52
34696;BME280;20918;51.138;17.370;2023-03-22T14:57:50;99585.01;;;16.74;50.17
34696;BME280;20918;51.138;17.370;2023-03-22T15:00:52;99579.53;;;16.62;50.33
34696;BME280;20918;51.138;17.370;2023-03-22T15:04:00;99579.70;;;16.57;50.77
34696;BME280;20918;51.138;17.370;2023-03-22T15:07:04;99577.71;;;16.56;51.00
34696;BME280;20918;51.138;17.370;2023-03-22T15:10:11;99572.23;;;16.58;50.76
34696;BME280;20918;51.138;17.370;2023-03-22T15:13:12;99568.48;;;16.59;50.92
34696;BME280;20918;51.138;17.370;2023-03-22T15:16:15;99564.56;;;16.63;51.09
34696;BME280;20918;51.138;17.370;2023-03-22T15:19:20;99562.23;;;16.71;51.30
34696;BME280;20918;51.138;17.370;2023-03-22T15:22:22;99557.04;;;16.78;51.25
34696;BME280;20918;51.138;17.370;2023-03-22T15:25:27;99553.91;;;16.83;51.20
34696;BME280;20918;51.138;17.370;2023-03-22T15:28:30;99553.42;;;16.86;51.19
34696;BME280;20918;51.138;17.370;2023-03-22T15:31:43;99550.58;;;16.90;51.19
34696;BME280;20918;51.138;17.370;2023-03-22T15:34:52;99545.92;;;16.90;50.95
34696;BME280;20918;51.138;17.370;2023-03-22T15:37:53;99544.25;;;16.88;51.28
34696;BME280;20918;51.138;17.370;2023-03-22T15:40:54;99538.94;;;16.84;50.70
34696;BME280;20918;51.138;17.370;2023-03-22T15:43:59;99539.77;;;16.78;50.90
34696;BME280;20918;51.138;17.370;2023-03-22T15:50:06;99537.73;;;16.68;51.18
34696;BME280;20918;51.138;17.370;2023-03-22T15:53:10;99531.64;;;16.67;51.24
34696;BME280;20918;51.138;17.370;2023-03-22T15:56:27;99529.27;;;16.65;51.17
34696;BME280;20918;51.138;17.370;2023-03-22T15:59:32;99529.08;;;16.60;51.35
34696;BME280;20918;51.138;17.370;2023-03-22T16:02:32;99526.73;;;16.57;51.40
34696;BME280;20918;51.138;17.370;2023-03-22T16:05:34;99528.27;;;16.53;51.64
34696;BME280;20918;51.138;17.370;2023-03-22T16:08:35;99527.59;;;16.50;51.92
34696;BME280;20918;51.138;17.370;2023-03-22T16:11:36;99524.84;;;16.45;51.77
34696;BME280;20918;51.138;17.370;2023-03-22T16:14:36;99523.79;;;16.39;52.02
34696;BME280;20918;51.138;17.370;2023-03-22T16:17:38;99523.47;;;16.32;52.04
34696;BME280;20918;51.138;17.370;2023-03-22T16:20:39;99520.11;;;16.24;51.80
34696;BME280;20918;51.138;17.370;2023-03-22T16:23:40;99516.78;;;16.18;51.47
34696;BME280;20918;51.138;17.370;2023-03-22T16:26:41;99514.21;;;16.10;51.67
34696;BME280;20918;51.138;17.370;2023-03-22T16:29:44;99514.75;;;16.04;51.73
34696;BME280;20918;51.138;17.370;2023-03-22T16:32:45;99516.16;;;15.97;51.71
34696;BME280;20918;51.138;17.370;2023-03-22T16:35:46;99513.48;;;15.89;51.74
34696;BME280;20918;51.138;17.370;2023-03-22T16:38:50;99515.43;;;15.80;51.83
34696;BME280;20918;51.138;17.370;2023-03-22T16:41:51;99517.46;;;15.72;51.67
34696;BME280;20918;51.138;17.370;2023-03-22T16:44:55;99522.48;;;15.63;51.94
34696;BME280;20918;51.138;17.370;2023-03-22T16:47:56;99530.35;;;15.51;52.01
34696;BME280;20918;51.138;17.370;2023-03-22T16:50:56;99534.30;;;15.39;52.14
34696;BME280;20918;51.138;17.370;2023-03-22T16:54:00;99536.23;;;15.28;52.27
34696;BME280;20918;51.138;17.370;2023-03-22T16:57:01;99533.80;;;15.17;52.47
34696;BME280;20918;51.138;17.370;2023-03-22T17:00:01;99537.63;;;15.09;52.50
34696;BME280;20918;51.138;17.370;2023-03-22T17:03:04;99536.04;;;15.01;52.67
34696;BME280;20918;51.138;17.370;2023-03-22T17:06:12;99537.79;;;14.92;52.89
34696;BME280;20918;51.138;17.370;2023-03-22T17:09:13;99538.79;;;14.82;52.92
34696;BME280;20918;51.138;17.370;2023-03-22T17:12:34;99540.45;;;14.73;53.00
34696;BME280;20918;51.138;17.370;2023-03-22T17:15:43;99541.53;;;14.68;53.24
34696;BME280;20918;51.138;17.370;2023-03-22T17:18:46;99543.02;;;14.60;53.35
34696;BME280;20918;51.138;17.370;2023-03-22T17:21:49;99543.73;;;14.53;53.41
34696;BME280;20918;51.138;17.370;2023-03-22T17:24:50;99540.53;;;14.45;53.54
34696;BME280;20918;51.138;17.370;2023-03-22T17:28:03;99538.48;;;14.39;53.61
34696;BME280;20918;51.138;17.370;2023-03-22T17:31:06;99542.29;;;14.38;53.63
34696;BME280;20918;51.138;17.370;2023-03-22T17:34:09;99540.83;;;14.35;53.64
34696;BME280;20918;51.138;17.370;2023-03-22T17:37:11;99542.33;;;14.31;53.66
34696;BME280;20918;51.138;17.370;2023-03-22T17:40:37;99540.29;;;14.28;53.80
34696;BME280;20918;51.138;17.370;2023-03-22T17:43:38;99539.29;;;14.25;53.81
34696;BME280;20918;51.138;17.370;2023-03-22T17:46:39;99536.95;;;14.20;53.81
34696;BME280;20918;51.138;17.370;2023-03-22T17:49:39;99533.38;;;14.12;53.93
34696;BME280;20918;51.138;17.370;2023-03-22T17:52:41;99534.19;;;14.05;53.96
34696;BME280;20918;51.138;17.370;2023-03-22T17:55:41;99537.17;;;13.96;54.00
34696;BME280;20918;51.138;17.370;2023-03-22T17:58:41;99531.89;;;13.85;54.21
34696;BME280;20918;51.138;17.370;2023-03-22T18:01:42;99536.71;;;13.72;54.53
34696;BME280;20918;51.138;17.370;2023-03-22T18:04:42;99535.31;;;13.59;54.71
34696;BME280;20918;51.138;17.370;2023-03-22T18:07:43;99535.90;;;13.51;54.90